sensor_id;sensor_type;location;lat;lon;timestamp;temperature;humidity
68485;DHT22;55472;50.060;21.960;2023-06-10T00:00:43;17.60;94.30
68485;DHT22;55472;50.060;21.960;2023-06-10T00:03:30;17.60;94.30
68485;DHT22;55472;50.060;21.960;2023-06-10T00:05:56;17.60;94.20
68485;DHT22;55472;50.060;21.960;2023-06-10T00:08:22;17.60;94.40
68485;DHT22;55472;50.060;21.960;2023-06-10T00:10:48;17.60;94.20
68485;DHT22;55472;50.060;21.960;2023-06-10T00:13:14;17.50;94.30
68485;DHT22;55472;50.060;21.960;2023-06-10T00:15:41;17.50;94.30
68485;DHT22;55472;50.060;21.960;2023-06-10T00:18:08;17.50;94.30
68485;DHT22;55472;50.060;21.960;2023-06-10T00:20:35;17.50;94.40
68485;DHT22;55472;50.060;21.960;2023-06-10T00:23:03;17.50;94.40
68485;DHT22;55472;50.060;21.960;2023-06-10T00:25:32;17.40;94.30
68485;DHT22;55472;50.060;21.960;2023-06-10T00:27:58;17.40;94.50
68485;DHT22;55472;50.060;21.960;2023-06-10T00:30:24;17.30;95.10
68485;DHT22;55472;50.060;21.960;2023-06-10T00:32:51;17.20;95.60
68485;DHT22;55472;50.060;21.960;2023-06-10T00:35:17;17.20;95.50
68485;DHT22;55472;50.060;21.960;2023-06-10T00:37:43;17.20;95.40
68485;DHT22;55472;50.060;21.960;2023-06-10T00:40:10;17.20;95.30
68485;DHT22;55472;50.060;21.960;2023-06-10T00:42:36;17.20;95.20
68485;DHT22;55472;50.060;21.960;2023-06-10T00:45:03;17.20;95.10
68485;DHT22;55472;50.060;21.960;2023-06-10T00:47:30;17.20;95.00
68485;DHT22;55472;50.060;21.960;2023-06-10T00:49:56;17.10;94.90
68485;DHT22;55472;50.060;21.960;2023-06-10T00:52:28;17.10;95.00
68485;DHT22;55472;50.060;21.960;2023-06-10T00:54:56;17.10;95.00
68485;DHT22;55472;50.060;21.960;2023-06-10T00:57:22;17.10;95.00
68485;DHT22;55472;50.060;21.960;2023-06-10T00:59:49;17.10;94.80
68485;DHT22;55472;50.060;21.960;2023-06-10T01:02:15;17.00;94.60
68485;DHT22;55472;50.060;21.960;2023-06-10T01:04:42;17.00;95.00
68485;DHT22;55472;50.060;21.960;2023-06-10T01:13:01;16.90;95.30
68485;DHT22;55472;50.060;21.960;2023-06-10T01:15:31;16.90;95.20
68485;DHT22;55472;50.060;21.960;2023-06-10T01:18:07;16.90;94.70
68485;DHT22;55472;50.060;21.960;2023-06-10T01:20:36;16.90;94.50
68485;DHT22;55472;50.060;21.960;2023-06-10T01:23:06;16.90;94.70
68485;DHT22;55472;50.060;21.960;2023-06-10T01:25:36;16.80;94.80
68485;DHT22;55472;50.060;21.960;2023-06-10T01:33:39;16.80;94.10
68485;DHT22;55472;50.060;21.960;2023-06-10T01:36:09;16.80;94.50
68485;DHT22;55472;50.060;21.960;2023-06-10T01:38:44;16.80;94.40
68485;DHT22;55472;50.060;21.960;2023-06-10T01:41:17;16.80;94.00
68485;DHT22;55472;50.060;21.960;2023-06-10T01:43:44;16.70;94.40
68485;DHT22;55472;50.060;21.960;2023-06-10T01:46:11;16.70;94.50
68485;DHT22;55472;50.060;21.960;2023-06-10T01:48:38;16.70;94.00
68485;DHT22;55472;50.060;21.960;2023-06-10T01:51:05;16.70;94.00
68485;DHT22;55472;50.060;21.960;2023-06-10T01:53:31;16.70;94.20
68485;DHT22;55472;50.060;21.960;2023-06-10T01:55:57;16.70;94.90
68485;DHT22;55472;50.060;21.960;2023-06-10T01:58:23;16.60;95.80
68485;DHT22;55472;50.060;21.960;2023-06-10T02:00:49;16.60;96.70
68485;DHT22;55472;50.060;21.960;2023-06-10T02:03:15;16.50;97.40
68485;DHT22;55472;50.060;21.960;2023-06-10T02:05:42;16.50;98.10
68485;DHT22;55472;50.060;21.960;2023-06-10T02:08:08;16.50;98.10
68485;DHT22;55472;50.060;21.960;2023-06-10T02:10:34;16.60;98.10
68485;DHT22;55472;50.060;21.960;2023-06-10T02:13:00;16.60;97.90
68485;DHT22;55472;50.060;21.960;2023-06-10T02:15:26;16.60;97.70
68485;DHT22;55472;50.060;21.960;2023-06-10T02:17:53;16.60;97.70
68485;DHT22;55472;50.060;21.960;2023-06-10T02:20:20;16.70;97.50
68485;DHT22;55472;50.060;21.960;2023-06-10T02:22:46;16.70;97.50
68485;DHT22;55472;50.060;21.960;2023-06-10T02:25:12;16.70;97.30
68485;DHT22;55472;50.060;21.960;2023-06-10T02:27:39;16.70;97.20
68485;DHT22;55472;50.060;21.960;2023-06-10T02:30:05;16.70;97.10
68485;DHT22;55472;50.060;21.960;2023-06-10T02:32:32;16.70;96.90
68485;DHT22;55472;50.060;21.960;2023-06-10T02:34:58;16.70;96.90
68485;DHT22;55472;50.060;21.960;2023-06-10T02:37:26;16.70;96.80
68485;DHT22;55472;50.060;21.960;2023-06-10T02:39:52;16.70;96.80
68485;DHT22;55472;50.060;21.960;2023-06-10T02:42:18;16.70;96.70
68485;DHT22;55472;50.060;21.960;2023-06-10T02:44:44;16.70;96.80
68485;DHT22;55472;50.060;21.960;2023-06-10T02:47:11;16.70;96.90
68485;DHT22;55472;50.060;21.960;2023-06-10T02:49:37;16.70;97.00
68485;DHT22;55472;50.060;21.960;2023-06-10T02:52:03;16.70;96.70
68485;DHT22;55472;50.060;21.960;2023-06-10T02:54:29;16.70;96.50
68485;DHT22;55472;50.060;21.960;2023-06-10T02:56:55;16.70;96.60
68485;DHT22;55472;50.060;21.960;2023-06-10T02:59:22;16.70;96.60
68485;DHT22;55472;50.060;21.960;2023-06-10T03:01:48;16.70;96.70
68485;DHT22;55472;50.060;21.960;2023-06-10T03:04:14;16.70;96.70
68485;DHT22;55472;50.060;21.960;2023-06-10T03:06:40;16.80;96.60
68485;DHT22;55472;50.060;21.960;2023-06-10T03:09:06;16.70;96.50
68485;DHT22;55472;50.060;21.960;2023-06-10T03:11:36;16.70;96.30
68485;DHT22;55472;50.060;21.960;2023-06-10T03:14:02;16.70;96.50
68485;DHT22;55472;50.060;21.960;2023-06-10T03:16:28;16.70;96.50
68485;DHT22;55472;50.060;21.960;2023-06-10T03:18:58;16.70;96.30
68485;DHT22;55472;50.060;21.960;2023-06-10T03:21:24;16.70;96.10
68485;DHT22;55472;50.060;21.960;2023-06-10T03:23:50;16.70;96.10
68485;DHT22;55472;50.060;21.960;2023-06-10T03:26:16;16.80;96.10
68485;DHT22;55472;50.060;21.960;2023-06-10T03:28:42;16.80;96.10
68485;DHT22;55472;50.060;21.960;2023-06-10T03:31:09;16.80;96.20
68485;DHT22;55472;50.060;21.960;2023-06-10T03:33:35;16.80;96.10
68485;DHT22;55472;50.060;21.960;2023-06-10T03:36:01;16.80;96.30
68485;DHT22;55472;50.060;21.960;2023-06-10T03:38:27;16.80;96.20
68485;DHT22;55472;50.060;21.960;2023-06-10T03:40:54;16.90;96.30
68485;DHT22;55472;50.060;21.960;2023-06-10T03:43:20;16.90;96.20
68485;DHT22;55472;50.060;21.960;2023-06-10T03:45:47;16.90;96.00
68485;DHT22;55472;50.060;21.960;2023-06-10T03:48:13;16.90;95.90
68485;DHT22;55472;50.060;21.960;2023-06-10T03:50:40;17.00;95.60
68485;DHT22;55472;50.060;21.960;2023-06-10T03:53:06;17.00;95.60
68485;DHT22;55472;50.060;21.960;2023-06-10T03:55:33;17.00;95.20
68485;DHT22;55472;50.060;21.960;2023-06-10T03:57:59;17.00;95.50
68485;DHT22;55472;50.060;21.960;2023-06-10T04:00:25;17.00;95.40
68485;DHT22;55472;50.060;21.960;2023-06-10T04:02:51;17.00;94.60
68485;DHT22;55472;50.060;21.960;2023-06-10T04:05:19;17.10;95.20
68485;DHT22;55472;50.060;21.960;2023-06-10T04:07:48;17.10;95.40
68485;DHT22;55472;50.060;21.960;2023-06-10T04:10:15;17.20;95.60
68485;DHT22;55472;50.060;21.960;2023-06-10T04:12:41;17.30;95.60
68485;DHT22;55472;50.060;21.960;2023-06-10T04:15:08;17.30;95.10
68485;DHT22;55472;50.060;21.960;2023-06-10T04:17:35;17.40;94.50
68485;DHT22;55472;50.060;21.960;2023-06-10T04:20:01;17.40;93.90
68485;DHT22;55472;50.060;21.960;2023-06-10T04:22:29;17.50;93.70
68485;DHT22;55472;50.060;21.960;2023-06-10T04:24:56;17.50;93.20
68485;DHT22;55472;50.060;21.960;2023-06-10T04:27:22;17.60;92.70
68485;DHT22;55472;50.060;21.960;2023-06-10T04:29:48;17.60;92.40
68485;DHT22;55472;50.060;21.960;2023-06-10T04:32:14;17.70;92.10
68485;DHT22;55472;50.060;21.960;2023-06-10T04:34:41;17.70;91.30
68485;DHT22;55472;50.060;21.960;2023-06-10T04:37:07;17.70;91.30
68485;DHT22;55472;50.060;21.960;2023-06-10T04:39:33;17.80;90.50
68485;DHT22;55472;50.060;21.960;2023-06-10T04:41:59;17.80;90.60
68485;DHT22;55472;50.060;21.960;2023-06-10T04:44:26;17.90;89.80
68485;DHT22;55472;50.060;21.960;2023-06-10T04:46:52;17.90;90.20
68485;DHT22;55472;50.060;21.960;2023-06-10T04:49:18;18.00;89.30
68485;DHT22;55472;50.060;21.960;2023-06-10T04:51:44;18.00;89.60
68485;DHT22;55472;50.060;21.960;2023-06-10T04:54:11;18.10;89.40
68485;DHT22;55472;50.060;21.960;2023-06-10T04:56:37;18.20;89.00
68485;DHT22;55472;50.060;21.960;2023-06-10T04:59:03;18.20;88.60
68485;DHT22;55472;50.060;21.960;2023-06-10T05:01:29;18.20;87.90
68485;DHT22;55472;50.060;21.960;2023-06-10T05:03:55;18.20;87.50
68485;DHT22;55472;50.060;21.960;2023-06-10T05:06:21;18.20;87.80
68485;DHT22;55472;50.060;21.960;2023-06-10T05:08:47;18.30;87.80
68485;DHT22;55472;50.060;21.960;2023-06-10T05:11:13;18.30;87.40
68485;DHT22;55472;50.060;21.960;2023-06-10T05:13:41;18.30;87.40
68485;DHT22;55472;50.060;21.960;2023-06-10T05:16:08;18.30;87.30
68485;DHT22;55472;50.060;21.960;2023-06-10T05:18:35;18.30;87.30
68485;DHT22;55472;50.060;21.960;2023-06-10T05:21:01;18.30;87.10
68485;DHT22;55472;50.060;21.960;2023-06-10T05:23:28;18.20;87.40
68485;DHT22;55472;50.060;21.960;2023-06-10T05:25:54;18.20;87.90
68485;DHT22;55472;50.060;21.960;2023-06-10T05:28:20;18.20;87.70
68485;DHT22;55472;50.060;21.960;2023-06-10T05:30:46;18.30;87.70
68485;DHT22;55472;50.060;21.960;2023-06-10T05:33:13;18.30;87.70
68485;DHT22;55472;50.060;21.960;2023-06-10T05:35:39;18.30;87.80
68485;DHT22;55472;50.060;21.960;2023-06-10T05:38:06;18.30;87.80
68485;DHT22;55472;50.060;21.960;2023-06-10T05:40:32;18.40;87.60
68485;DHT22;55472;50.060;21.960;2023-06-10T05:42:59;18.40;87.30
68485;DHT22;55472;50.060;21.960;2023-06-10T05:45:25;18.50;87.20
68485;DHT22;55472;50.060;21.960;2023-06-10T05:47:51;18.60;86.50
68485;DHT22;55472;50.060;21.960;2023-06-10T05:50:17;18.60;85.80
68485;DHT22;55472;50.060;21.960;2023-06-10T05:52:43;18.70;86.50
68485;DHT22;55472;50.060;21.960;2023-06-10T05:55:10;18.80;86.30
68485;DHT22;55472;50.060;21.960;2023-06-10T05:57:36;18.90;86.00
68485;DHT22;55472;50.060;21.960;2023-06-10T06:00:04;19.00;85.60
68485;DHT22;55472;50.060;21.960;2023-06-10T06:02:31;19.10;85.30
68485;DHT22;55472;50.060;21.960;2023-06-10T06:04:57;19.30;84.80
68485;DHT22;55472;50.060;21.960;2023-06-10T06:07:23;19.40;83.80
68485;DHT22;55472;50.060;21.960;2023-06-10T06:09:49;19.50;83.30
68485;DHT22;55472;50.060;21.960;2023-06-10T06:12:15;19.60;82.20
68485;DHT22;55472;50.060;21.960;2023-06-10T06:14:41;19.80;82.70
68485;DHT22;55472;50.060;21.960;2023-06-10T06:17:08;20.00;82.50
68485;DHT22;55472;50.060;21.960;2023-06-10T06:19:33;20.10;81.80
68485;DHT22;55472;50.060;21.960;2023-06-10T06:22:00;20.30;79.50
68485;DHT22;55472;50.060;21.960;2023-06-10T06:24:26;20.40;80.00
68485;DHT22;55472;50.060;21.960;2023-06-10T06:26:52;20.60;79.10
68485;DHT22;55472;50.060;21.960;2023-06-10T06:29:18;20.70;78.60
68485;DHT22;55472;50.060;21.960;2023-06-10T06:31:44;20.90;77.90
68485;DHT22;55472;50.060;21.960;2023-06-10T06:34:11;21.00;76.30
68485;DHT22;55472;50.060;21.960;2023-06-10T06:36:37;21.20;76.30
68485;DHT22;55472;50.060;21.960;2023-06-10T06:39:03;21.30;75.20
68485;DHT22;55472;50.060;21.960;2023-06-10T06:41:29;21.50;73.30
68485;DHT22;55472;50.060;21.960;2023-06-10T06:43:55;21.60;73.30
68485;DHT22;55472;50.060;21.960;2023-06-10T06:46:22;21.80;73.00
68485;DHT22;55472;50.060;21.960;2023-06-10T06:48:48;22.00;73.50
68485;DHT22;55472;50.060;21.960;2023-06-10T06:51:14;22.20;71.00
68485;DHT22;55472;50.060;21.960;2023-06-10T06:53:41;22.30;72.70
68485;DHT22;55472;50.060;21.960;2023-06-10T06:56:13;22.50;70.20
68485;DHT22;55472;50.060;21.960;2023-06-10T06:58:39;22.70;69.60
68485;DHT22;55472;50.060;21.960;2023-06-10T07:01:05;22.80;68.90
68485;DHT22;55472;50.060;21.960;2023-06-10T07:03:31;22.90;68.20
68485;DHT22;55472;50.060;21.960;2023-06-10T07:05:58;23.00;68.60
68485;DHT22;55472;50.060;21.960;2023-06-10T07:08:24;23.20;67.30
68485;DHT22;55472;50.060;21.960;2023-06-10T07:10:50;23.20;67.60
68485;DHT22;55472;50.060;21.960;2023-06-10T07:13:16;23.20;67.10
68485;DHT22;55472;50.060;21.960;2023-06-10T07:15:42;23.20;66.80
68485;DHT22;55472;50.060;21.960;2023-06-10T07:18:08;23.20;66.40
68485;DHT22;55472;50.060;21.960;2023-06-10T07:20:34;23.20;65.80
68485;DHT22;55472;50.060;21.960;2023-06-10T07:23:00;23.10;66.90
68485;DHT22;55472;50.060;21.960;2023-06-10T07:25:27;23.10;66.70
68485;DHT22;55472;50.060;21.960;2023-06-10T07:27:53;23.10;66.50
68485;DHT22;55472;50.060;21.960;2023-06-10T07:30:19;23.20;66.10
68485;DHT22;55472;50.060;21.960;2023-06-10T07:32:45;23.20;65.80
68485;DHT22;55472;50.060;21.960;2023-06-10T07:35:12;23.30;66.70
68485;DHT22;55472;50.060;21.960;2023-06-10T07:37:39;23.50;66.70
68485;DHT22;55472;50.060;21.960;2023-06-10T07:40:06;23.50;65.90
68485;DHT22;55472;50.060;21.960;2023-06-10T07:42:34;23.60;66.40
68485;DHT22;55472;50.060;21.960;2023-06-10T07:45:02;23.70;66.70
68485;DHT22;55472;50.060;21.960;2023-06-10T07:47:30;23.70;66.10
68485;DHT22;55472;50.060;21.960;2023-06-10T07:49:56;23.80;66.20
68485;DHT22;55472;50.060;21.960;2023-06-10T07:52:22;23.80;66.10
68485;DHT22;55472;50.060;21.960;2023-06-10T07:54:49;24.00;65.80
68485;DHT22;55472;50.060;21.960;2023-06-10T07:57:19;24.20;64.80
68485;DHT22;55472;50.060;21.960;2023-06-10T07:59:45;24.20;64.80
68485;DHT22;55472;50.060;21.960;2023-06-10T08:02:11;24.10;64.70
68485;DHT22;55472;50.060;21.960;2023-06-10T08:04:37;24.20;64.20
68485;DHT22;55472;50.060;21.960;2023-06-10T08:07:04;24.30;63.60
68485;DHT22;55472;50.060;21.960;2023-06-10T08:09:30;24.20;63.60
68485;DHT22;55472;50.060;21.960;2023-06-10T08:11:56;24.40;64.40
68485;DHT22;55472;50.060;21.960;2023-06-10T08:14:23;24.50;63.00
68485;DHT22;55472;50.060;21.960;2023-06-10T08:16:49;24.40;63.90
68485;DHT22;55472;50.060;21.960;2023-06-10T08:19:15;24.60;63.30
68485;DHT22;55472;50.060;21.960;2023-06-10T08:21:41;24.70;62.30
68485;DHT22;55472;50.060;21.960;2023-06-10T08:24:07;24.70;61.20
68485;DHT22;55472;50.060;21.960;2023-06-10T08:26:34;24.60;62.20
68485;DHT22;55472;50.060;21.960;2023-06-10T08:29:00;24.70;62.60
68485;DHT22;55472;50.060;21.960;2023-06-10T08:31:27;24.70;62.50
68485;DHT22;55472;50.060;21.960;2023-06-10T08:33:53;24.60;62.50
68485;DHT22;55472;50.060;21.960;2023-06-10T08:36:19;24.40;63.10
68485;DHT22;55472;50.060;21.960;2023-06-10T08:38:45;24.40;63.00
68485;DHT22;55472;50.060;21.960;2023-06-10T08:41:12;24.40;62.60
68485;DHT22;55472;50.060;21.960;2023-06-10T08:44:10;24.50;62.40
68485;DHT22;55472;50.060;21.960;2023-06-10T08:46:42;24.50;62.50
68485;DHT22;55472;50.060;21.960;2023-06-10T08:49:17;24.60;62.50
68485;DHT22;55472;50.060;21.960;2023-06-10T08:51:49;24.90;62.60
68485;DHT22;55472;50.060;21.960;2023-06-10T08:54:20;25.20;61.80
68485;DHT22;55472;50.060;21.960;2023-06-10T08:56:49;25.40;61.00
68485;DHT22;55472;50.060;21.960;2023-06-10T08:59:18;25.60;60.50
68485;DHT22;55472;50.060;21.960;2023-06-10T09:01:46;25.40;60.90
68485;DHT22;55472;50.060;21.960;2023-06-10T09:04:13;25.30;60.20
68485;DHT22;55472;50.060;21.960;2023-06-10T09:06:40;24.90;61.90
68485;DHT22;55472;50.060;21.960;2023-06-10T09:09:07;25.00;61.80
68485;DHT22;55472;50.060;21.960;2023-06-10T09:11:33;25.50;60.80
68485;DHT22;55472;50.060;21.960;2023-06-10T09:13:59;26.00;60.30
68485;DHT22;55472;50.060;21.960;2023-06-10T09:16:26;26.10;57.60
68485;DHT22;55472;50.060;21.960;2023-06-10T09:18:52;26.10;58.20
68485;DHT22;55472;50.060;21.960;2023-06-10T09:21:22;26.30;58.80
68485;DHT22;55472;50.060;21.960;2023-06-10T09:23:49;26.50;56.90
68485;DHT22;55472;50.060;21.960;2023-06-10T09:26:15;26.50;56.30
68485;DHT22;55472;50.060;21.960;2023-06-10T09:28:48;26.10;56.30
68485;DHT22;55472;50.060;21.960;2023-06-10T09:31:14;25.80;56.70
68485;DHT22;55472;50.060;21.960;2023-06-10T09:33:45;25.00;57.90
68485;DHT22;55472;50.060;21.960;2023-06-10T09:36:11;24.80;59.10
68485;DHT22;55472;50.060;21.960;2023-06-10T09:38:38;24.60;58.80
68485;DHT22;55472;50.060;21.960;2023-06-10T09:41:04;24.50;59.80
68485;DHT22;55472;50.060;21.960;2023-06-10T09:43:41;24.60;60.20
68485;DHT22;55472;50.060;21.960;2023-06-10T09:46:19;24.80;60.80
68485;DHT22;55472;50.060;21.960;2023-06-10T09:48:47;25.10;58.20
68485;DHT22;55472;50.060;21.960;2023-06-10T09:51:14;25.40;57.60
68485;DHT22;55472;50.060;21.960;2023-06-10T09:53:42;25.40;58.00
68485;DHT22;55472;50.060;21.960;2023-06-10T09:56:08;25.70;57.30
68485;DHT22;55472;50.060;21.960;2023-06-10T09:58:39;25.90;56.60
68485;DHT22;55472;50.060;21.960;2023-06-10T10:01:10;26.10;57.00
68485;DHT22;55472;50.060;21.960;2023-06-10T10:03:50;26.30;56.30
68485;DHT22;55472;50.060;21.960;2023-06-10T10:06:19;26.00;55.80
68485;DHT22;55472;50.060;21.960;2023-06-10T10:08:48;25.60;55.50
68485;DHT22;55472;50.060;21.960;2023-06-10T10:11:17;25.40;57.90
68485;DHT22;55472;50.060;21.960;2023-06-10T10:13:49;25.60;58.50
68485;DHT22;55472;50.060;21.960;2023-06-10T10:16:33;25.70;58.00
68485;DHT22;55472;50.060;21.960;2023-06-10T10:19:32;25.90;58.80
68485;DHT22;55472;50.060;21.960;2023-06-10T10:22:08;26.20;58.00
68485;DHT22;55472;50.060;21.960;2023-06-10T10:24:41;26.50;56.20
68485;DHT22;55472;50.060;21.960;2023-06-10T10:27:31;26.70;55.70
68485;DHT22;55472;50.060;21.960;2023-06-10T10:30:02;26.90;55.20
68485;DHT22;55472;50.060;21.960;2023-06-10T10:33:06;27.00;53.70
68485;DHT22;55472;50.060;21.960;2023-06-10T10:35:54;27.10;53.20
68485;DHT22;55472;50.060;21.960;2023-06-10T10:38:21;27.10;53.20
68485;DHT22;55472;50.060;21.960;2023-06-10T10:40:48;27.20;54.40
68485;DHT22;55472;50.060;21.960;2023-06-10T10:43:15;27.10;53.80
68485;DHT22;55472;50.060;21.960;2023-06-10T10:45:42;27.40;54.50
68485;DHT22;55472;50.060;21.960;2023-06-10T10:48:12;27.60;53.40
68485;DHT22;55472;50.060;21.960;2023-06-10T10:50:39;27.80;53.70
68485;DHT22;55472;50.060;21.960;2023-06-10T10:53:06;27.90;53.00
68485;DHT22;55472;50.060;21.960;2023-06-10T10:55:33;28.00;53.20
68485;DHT22;55472;50.060;21.960;2023-06-10T10:58:03;27.90;52.70
68485;DHT22;55472;50.060;21.960;2023-06-10T11:00:36;27.90;53.20
68485;DHT22;55472;50.060;21.960;2023-06-10T11:05:48;27.80;52.50
68485;DHT22;55472;50.060;21.960;2023-06-10T11:08:16;27.60;53.40
68485;DHT22;55472;50.060;21.960;2023-06-10T11:11:18;27.50;53.70
68485;DHT22;55472;50.060;21.960;2023-06-10T11:16:28;28.00;53.10
68485;DHT22;55472;50.060;21.960;2023-06-10T11:18:55;28.20;52.80
68485;DHT22;55472;50.060;21.960;2023-06-10T11:21:25;28.40;52.20
68485;DHT22;55472;50.060;21.960;2023-06-10T11:23:51;28.00;51.20
68485;DHT22;55472;50.060;21.960;2023-06-10T11:26:30;27.60;51.70
68485;DHT22;55472;50.060;21.960;2023-06-10T11:34:02;27.10;54.40
68485;DHT22;55472;50.060;21.960;2023-06-10T11:36:31;27.20;54.20
68485;DHT22;55472;50.060;21.960;2023-06-10T11:38:59;27.50;53.80
68485;DHT22;55472;50.060;21.960;2023-06-10T11:41:31;27.50;51.70
68485;DHT22;55472;50.060;21.960;2023-06-10T11:44:07;27.50;51.30
68485;DHT22;55472;50.060;21.960;2023-06-10T11:46:37;27.30;52.90
68485;DHT22;55472;50.060;21.960;2023-06-10T11:49:04;27.20;53.40
68485;DHT22;55472;50.060;21.960;2023-06-10T11:51:38;26.90;53.20
68485;DHT22;55472;50.060;21.960;2023-06-10T11:54:08;26.70;54.90
68485;DHT22;55472;50.060;21.960;2023-06-10T11:56:35;26.70;55.60
68485;DHT22;55472;50.060;21.960;2023-06-10T11:59:06;26.30;55.10
68485;DHT22;55472;50.060;21.960;2023-06-10T12:01:37;26.20;55.40
68485;DHT22;55472;50.060;21.960;2023-06-10T12:04:08;25.80;57.00
68485;DHT22;55472;50.060;21.960;2023-06-10T12:06:44;25.70;56.80
68485;DHT22;55472;50.060;21.960;2023-06-10T12:09:29;25.30;57.60
68485;DHT22;55472;50.060;21.960;2023-06-10T12:12:04;24.90;58.30
68485;DHT22;55472;50.060;21.960;2023-06-10T12:14:57;24.90;58.30
68485;DHT22;55472;50.060;21.960;2023-06-10T12:19:58;25.20;59.60
68485;DHT22;55472;50.060;21.960;2023-06-10T12:22:25;25.20;58.60
68485;DHT22;55472;50.060;21.960;2023-06-10T12:25:05;25.30;59.10
68485;DHT22;55472;50.060;21.960;2023-06-10T12:27:35;25.40;58.60
68485;DHT22;55472;50.060;21.960;2023-06-10T12:30:06;25.50;58.90
68485;DHT22;55472;50.060;21.960;2023-06-10T12:32:44;25.40;58.30
68485;DHT22;55472;50.060;21.960;2023-06-10T12:35:23;25.40;59.50
68485;DHT22;55472;50.060;21.960;2023-06-10T12:37:57;25.30;60.20
68485;DHT22;55472;50.060;21.960;2023-06-10T12:40:27;25.10;59.40
68485;DHT22;55472;50.060;21.960;2023-06-10T12:43:02;24.90;59.40
68485;DHT22;55472;50.060;21.960;2023-06-10T12:45:37;24.80;60.20
68485;DHT22;55472;50.060;21.960;2023-06-10T12:48:05;24.80;61.10
68485;DHT22;55472;50.060;21.960;2023-06-10T12:50:41;24.70;59.90
68485;DHT22;55472;50.060;21.960;2023-06-10T12:53:08;24.50;60.60
68485;DHT22;55472;50.060;21.960;2023-06-10T12:55:35;24.40;60.70
68485;DHT22;55472;50.060;21.960;2023-06-10T12:58:01;24.30;61.40
68485;DHT22;55472;50.060;21.960;2023-06-10T13:00:29;24.40;61.70
68485;DHT22;55472;50.060;21.960;2023-06-10T13:03:05;24.50;61.20
68485;DHT22;55472;50.060;21.960;2023-06-10T13:05:32;24.70;61.40
68485;DHT22;55472;50.060;21.960;2023-06-10T13:07:59;24.80;60.60
68485;DHT22;55472;50.060;21.960;2023-06-10T13:10:25;24.90;59.40
68485;DHT22;55472;50.060;21.960;2023-06-10T13:12:53;25.10;59.10
68485;DHT22;55472;50.060;21.960;2023-06-10T13:15:20;25.10;58.70
68485;DHT22;55472;50.060;21.960;2023-06-10T13:17:47;25.00;59.50
68485;DHT22;55472;50.060;21.960;2023-06-10T13:20:15;25.10;59.20
68485;DHT22;55472;50.060;21.960;2023-06-10T13:22:44;24.90;59.60
68485;DHT22;55472;50.060;21.960;2023-06-10T13:25:11;25.00;59.60
68485;DHT22;55472;50.060;21.960;2023-06-10T13:27:37;25.10;59.60
68485;DHT22;55472;50.060;21.960;2023-06-10T13:30:06;25.20;59.10
68485;DHT22;55472;50.060;21.960;2023-06-10T13:32:32;25.30;59.50
68485;DHT22;55472;50.060;21.960;2023-06-10T13:34:59;25.40;59.20
68485;DHT22;55472;50.060;21.960;2023-06-10T13:37:25;25.50;58.40
68485;DHT22;55472;50.060;21.960;2023-06-10T13:39:51;25.50;58.50
68485;DHT22;55472;50.060;21.960;2023-06-10T13:42:18;25.60;57.90
68485;DHT22;55472;50.060;21.960;2023-06-10T13:44:46;25.70;57.90
68485;DHT22;55472;50.060;21.960;2023-06-10T13:47:13;25.60;57.10
68485;DHT22;55472;50.060;21.960;2023-06-10T13:49:40;25.50;57.30
68485;DHT22;55472;50.060;21.960;2023-06-10T13:52:07;25.50;57.60
68485;DHT22;55472;50.060;21.960;2023-06-10T13:54:34;25.40;57.10
68485;DHT22;55472;50.060;21.960;2023-06-10T13:57:03;25.40;57.30
68485;DHT22;55472;50.060;21.960;2023-06-10T13:59:29;25.30;57.20
68485;DHT22;55472;50.060;21.960;2023-06-10T14:01:55;25.20;57.00
68485;DHT22;55472;50.060;21.960;2023-06-10T14:04:22;25.10;57.50
68485;DHT22;55472;50.060;21.960;2023-06-10T14:06:48;25.00;58.20
68485;DHT22;55472;50.060;21.960;2023-06-10T14:09:15;24.70;58.50
68485;DHT22;55472;50.060;21.960;2023-06-10T14:11:42;24.60;59.10
68485;DHT22;55472;50.060;21.960;2023-06-10T14:14:08;24.60;58.90
68485;DHT22;55472;50.060;21.960;2023-06-10T14:16:34;24.30;58.90
68485;DHT22;55472;50.060;21.960;2023-06-10T14:19:02;24.10;59.30
68485;DHT22;55472;50.060;21.960;2023-06-10T14:21:28;23.90;59.70
68485;DHT22;55472;50.060;21.960;2023-06-10T14:23:54;23.90;59.90
68485;DHT22;55472;50.060;21.960;2023-06-10T14:26:20;23.90;60.10
68485;DHT22;55472;50.060;21.960;2023-06-10T14:28:48;23.80;60.20
68485;DHT22;55472;50.060;21.960;2023-06-10T14:31:15;23.80;60.50
68485;DHT22;55472;50.060;21.960;2023-06-10T14:33:42;23.70;60.50
68485;DHT22;55472;50.060;21.960;2023-06-10T14:36:10;23.70;60.50
68485;DHT22;55472;50.060;21.960;2023-06-10T14:38:36;23.70;60.70
68485;DHT22;55472;50.060;21.960;2023-06-10T14:41:02;23.60;60.90
68485;DHT22;55472;50.060;21.960;2023-06-10T14:43:28;23.60;61.20
68485;DHT22;55472;50.060;21.960;2023-06-10T14:45:55;23.60;61.50
68485;DHT22;55472;50.060;21.960;2023-06-10T14:48:22;23.50;60.60
68485;DHT22;55472;50.060;21.960;2023-06-10T14:50:48;23.60;61.30
68485;DHT22;55472;50.060;21.960;2023-06-10T14:53:19;23.50;60.90
68485;DHT22;55472;50.060;21.960;2023-06-10T14:55:45;23.60;61.50
68485;DHT22;55472;50.060;21.960;2023-06-10T14:58:12;23.60;62.30
68485;DHT22;55472;50.060;21.960;2023-06-10T15:00:38;23.60;63.10
68485;DHT22;55472;50.060;21.960;2023-06-10T15:03:04;23.60;63.20
68485;DHT22;55472;50.060;21.960;2023-06-10T15:05:30;23.50;63.30
68485;DHT22;55472;50.060;21.960;2023-06-10T15:07:56;23.40;63.80
68485;DHT22;55472;50.060;21.960;2023-06-10T15:10:22;23.30;63.90
68485;DHT22;55472;50.060;21.960;2023-06-10T15:12:49;23.30;63.70
68485;DHT22;55472;50.060;21.960;2023-06-10T15:15:22;23.30;63.40
68485;DHT22;55472;50.060;21.960;2023-06-10T15:17:49;23.10;64.30
68485;DHT22;55472;50.060;21.960;2023-06-10T15:20:15;23.10;64.30
68485;DHT22;55472;50.060;21.960;2023-06-10T15:22:41;23.10;64.70
68485;DHT22;55472;50.060;21.960;2023-06-10T15:25:08;23.10;64.60
68485;DHT22;55472;50.060;21.960;2023-06-10T15:27:34;23.10;64.50
68485;DHT22;55472;50.060;21.960;2023-06-10T15:30:00;23.10;64.20
68485;DHT22;55472;50.060;21.960;2023-06-10T15:32:27;23.00;64.40
68485;DHT22;55472;50.060;21.960;2023-06-10T15:34:53;23.00;64.60
68485;DHT22;55472;50.060;21.960;2023-06-10T15:37:20;23.00;64.10
68485;DHT22;55472;50.060;21.960;2023-06-10T15:39:47;22.90;64.30
68485;DHT22;55472;50.060;21.960;2023-06-10T15:42:13;22.80;64.20
68485;DHT22;55472;50.060;21.960;2023-06-10T15:44:39;22.80;64.30